Meckling, South Dakota
Current Conditions -  °F | °C
As of 2:35 AM on Thursday 18 Dec 2014 (Local Time) from KYKN Reporting Station
Overcast Overcast  
Wind Chill: 13°   Ceiling: 7000
Heat Index: 19°   Visibility: 10mi
Dew Point: 16°   Wind: 5mph
Humidity: 86%   Direction: 110°ESE
Pressure: 30.24"   Gusts: NA
Location:  42.84°N, 97.07°W
Report Text: KYKN 180835Z AUTO 11004KT 10SM OVC070 M07/M09 A3024 RMK AO1
Loading
Personal Weather Stations






























Interactive Weather Map New forecast layout! Learn more

10-Day Weather Forecast

Advertisements
Track Severe Weather on mobile